Time;durP1;ratioP1;P1;durP2;ratioP2;P2;SDS_P1;SDS_P2;PMS_P1;PMS_P2;Temp;Humidity;BMP_temperature;BMP_pressure;BME280_temperature;BME280_humidity;BME280_pressure;Samples;Min_cycle;Max_cycle;Signal;HPM_P1;HPM_P2
2022/04/29 00:01:17;;;;;;;0.10;0.10;;;;;;;;;;5084197;28;20297;-75
2022/04/29 00:03:43;;;;;;;0.10;0.10;;;;;;;;;;5092733;28;20216;-74
2022/04/29 00:06:11;;;;;;;0.10;0.10;;;;;;;;;;5083598;28;20640;-76
2022/04/29 00:08:37;;;;;;;0.10;0.10;;;;;;;;;;5092800;28;20219;-75
2022/04/29 00:11:06;;;;;;;0.10;0.10;;;;;;;;;;5082928;28;20253;-76
2022/04/29 00:13:33;;;;;;;6.00;5.70;;;;;;;;;;5093250;28;20242;-75
2022/04/29 00:15:59;;;;;;;0.10;0.10;;;;;;;;;;5082310;28;20244;-75
2022/04/29 00:18:26;;;;;;;0.10;0.10;;;;;;;;;;5094454;28;20285;-76
2022/04/29 00:20:53;;;;;;;0.10;0.10;;;;;;;;;;5081252;28;20239;-75
2022/04/29 00:23:21;;;;;;;0.10;0.10;;;;;;;;;;5094938;28;20203;-75
2022/04/29 00:25:48;;;;;;;0.10;0.10;;;;;;;;;;5080507;28;20275;-75
2022/04/29 00:28:14;;;;;;;0.10;0.10;;;;;;;;;;5095060;28;20256;-75
2022/04/29 00:30:40;;;;;;;0.10;0.10;;;;;;;;;;5079414;28;20268;-74
2022/04/29 00:33:07;;;;;;;0.10;0.10;;;;;;;;;;5096363;28;20207;-76
2022/04/29 00:35:34;;;;;;;0.10;0.10;;;;;;;;;;5078438;28;20240;-75
2022/04/29 00:38:00;;;;;;;0.10;0.10;;;;;;;;;;5097100;28;20258;-74
2022/04/29 00:40:29;;;;;;;0.10;0.10;;;;;;;;;;5077345;28;20252;-75
2022/04/29 00:42:55;;;;;;;0.10;0.10;;;;;;;;;;5097405;28;20196;-74
2022/04/29 00:45:22;;;;;;;0.10;0.10;;;;;;;;;;5076788;28;20212;-75
2022/04/29 00:47:49;;;;;;;0.10;0.10;;;;;;;;;;5098700;28;20251;-74
2022/04/29 00:50:16;;;;;;;0.10;0.10;;;;;;;;;;5076298;28;20273;-74
2022/04/29 00:52:43;;;;;;;0.10;0.10;;;;;;;;;;5099071;28;20463;-75
2022/04/29 00:55:11;;;;;;;0.10;0.10;;;;;;;;;;5075376;28;20240;-72
2022/04/29 00:57:41;;;;;;;0.10;0.10;;;;;;;;;;5099890;28;20305;-75
2022/04/29 01:00:09;;;;;;;0.10;0.10;;;;;;;;;;5074953;28;20231;-75
2022/04/29 01:02:38;;;;;;;0.10;0.10;;;;;;;;;;5099979;28;20219;-74
2022/04/29 01:05:05;;;;;;;0.10;0.10;;;;;;;;;;5084863;28;20207;-75
2022/04/29 01:07:32;;;;;;;0.10;0.10;;;;;;;;;;5056473;28;20410;-75
2022/04/29 01:09:58;;;;;;;0.10;0.10;;;;;;;;;;5084990;28;20245;-74
2022/04/29 01:12:25;;;;;;;0.10;0.10;;;;;;;;;;5089789;28;20240;-75
2022/04/29 01:14:55;;;;;;;0.10;0.10;;;;;;;;;;5084872;28;20304;-75
2022/04/29 01:17:21;;;;;;;0.10;0.10;;;;;;;;;;5089642;28;20274;-75
2022/04/29 01:19:47;;;;;;;0.10;0.10;;;;;;;;;;5084735;28;20269;-74
2022/04/29 01:22:15;;;;;;;0.10;0.10;;;;;;;;;;5089641;28;20247;-74
2022/04/29 01:24:41;;;;;;;0.10;0.10;;;;;;;;;;5084675;28;20484;-75
2022/04/29 01:27:12;;;;;;;0.10;0.10;;;;;;;;;;5089395;28;20261;-74
2022/04/29 01:29:40;;;;;;;0.10;0.10;;;;;;;;;;5084602;28;20422;-75
2022/04/29 01:32:07;;;;;;;0.10;0.10;;;;;;;;;;5089460;28;20431;-75
2022/04/29 01:34:33;;;;;;;0.10;0.10;;;;;;;;;;5084315;28;20199;-74
2022/04/29 01:36:59;;;;;;;0.10;0.10;;;;;;;;;;5088594;28;20242;-75
2022/04/29 01:39:27;;;;;;;0.10;0.10;;;;;;;;;;5084738;28;20246;-75
2022/04/29 01:41:53;;;;;;;0.10;0.10;;;;;;;;;;5087512;28;20287;-75
2022/04/29 01:44:22;;;;;;;0.10;0.10;;;;;;;;;;5085464;28;20357;-75
2022/04/29 01:46:48;;;;;;;0.10;0.10;;;;;;;;;;5087054;28;20428;-75
2022/04/29 01:49:15;;;;;;;0.10;0.10;;;;;;;;;;5086082;28;20208;-74
2022/04/29 01:51:42;;;;;;;0.10;0.10;;;;;;;;;;5086089;28;20302;-75
2022/04/29 01:54:10;;;;;;;0.10;0.10;;;;;;;;;;5087004;28;20231;-75
2022/04/29 01:56:38;;;;;;;0.10;0.10;;;;;;;;;;5085382;28;20302;-75
2022/04/29 01:59:05;;;;;;;0.10;0.10;;;;;;;;;;5086867;28;20517;-75
2022/04/29 02:01:32;;;;;;;0.10;0.10;;;;;;;;;;5084798;28;20445;-74
2022/04/29 02:03:58;;;;;;;0.10;0.10;;;;;;;;;;5088056;28;20553;-76
2022/04/29 02:06:27;;;;;;;0.10;0.10;;;;;;;;;;5083500;28;20306;-76
2022/04/29 02:08:53;;;;;;;0.10;0.10;;;;;;;;;;5088011;28;20218;-75
2022/04/29 02:11:19;;;;;;;0.30;0.30;;;;;;;;;;5082472;28;20288;-74
2022/04/29 02:13:48;;;;;;;0.10;0.10;;;;;;;;;;5089308;28;20260;-75
2022/04/29 02:16:14;;;;;;;0.10;0.10;;;;;;;;;;5081721;28;20242;-75
2022/04/29 02:18:41;;;;;;;0.10;0.10;;;;;;;;;;5089227;28;20241;-75
2022/04/29 02:21:08;;;;;;;0.10;0.10;;;;;;;;;;5080950;28;20238;-75
2022/04/29 02:23:34;;;;;;;0.10;0.10;;;;;;;;;;5090557;28;20226;-75
2022/04/29 02:26:00;;;;;;;0.10;0.10;;;;;;;;;;5079748;28;20242;-75
2022/04/29 02:28:27;;;;;;;0.10;0.10;;;;;;;;;;5091239;28;20257;-75
2022/04/29 02:30:55;;;;;;;0.10;0.10;;;;;;;;;;5079171;28;20559;-75
2022/04/29 02:33:21;;;;;;;0.10;0.10;;;;;;;;;;5092166;28;20246;-75
2022/04/29 02:35:47;;;;;;;0.10;0.10;;;;;;;;;;5078122;28;20245;-75
2022/04/29 02:38:16;;;;;;;0.10;0.10;;;;;;;;;;5093123;28;20217;-75
2022/04/29 02:40:42;;;;;;;0.10;0.10;;;;;;;;;;5077383;28;20280;-75
2022/04/29 02:43:08;;;;;;;0.10;0.10;;;;;;;;;;5076420;28;20227;-75
2022/04/29 02:45:35;;;;;;;0.10;0.10;;;;;;;;;;5076345;28;20238;-75
2022/04/29 02:48:04;;;;;;;0.10;0.10;;;;;;;;;;5094391;28;20241;-76
2022/04/29 02:50:30;;;;;;;0.10;0.10;;;;;;;;;;5076010;28;20242;-76
2022/04/29 02:52:56;;;;;;;0.10;0.10;;;;;;;;;;5095337;28;20201;-75
2022/04/29 02:55:23;;;;;;;0.10;0.10;;;;;;;;;;5074982;28;20357;-75
2022/04/29 02:57:49;;;;;;;0.10;0.10;;;;;;;;;;5096034;28;20226;-75
2022/04/29 03:00:16;;;;;;;0.10;0.10;;;;;;;;;;5073999;28;20223;-76
2022/04/29 03:02:42;;;;;;;0.10;0.10;;;;;;;;;;5097267;28;20374;-75
2022/04/29 03:05:09;;;;;;;0.10;0.10;;;;;;;;;;5073331;28;20245;-75
2022/04/29 03:07:36;;;;;;;0.10;0.10;;;;;;;;;;5097587;28;20213;-75
2022/04/29 03:10:02;;;;;;;0.10;0.10;;;;;;;;;;5082957;28;20232;-75
2022/04/29 03:12:29;;;;;;;0.10;0.10;;;;;;;;;;5088060;28;20247;-75
2022/04/29 03:15:15;;;;;;;0.10;0.10;;;;;;;;;;5082902;28;20203;-75
2022/04/29 03:20:27;;;;;;;0.00;0.00;;;;;;;;;;5074922;28;20254;-75
2022/04/29 03:22:53;;;;;;;0.10;0.10;;;;;;;;;;5095486;28;20203;-75
2022/04/29 03:25:19;;;;;;;0.10;0.10;;;;;;;;;;5073922;28;20274;-75
2022/04/29 03:27:46;;;;;;;0.10;0.10;;;;;;;;;;5096402;28;20198;-75
2022/04/29 03:30:13;;;;;;;0.10;0.10;;;;;;;;;;5075411;28;20207;-76
2022/04/29 03:32:39;;;;;;;0.10;0.10;;;;;;;;;;5101428;28;20199;-75
2022/04/29 03:35:06;;;;;;;0.10;0.10;;;;;;;;;;5078734;28;20248;-75
2022/04/29 03:37:33;;;;;;;0.10;0.10;;;;;;;;;;5102066;28;20215;-74
2022/04/29 03:39:59;;;;;;;0.10;0.10;;;;;;;;;;5086118;28;20231;-75
2022/04/29 03:42:26;;;;;;;0.10;0.10;;;;;;;;;;5091880;28;20238;-75
2022/04/29 03:44:52;;;;;;;0.10;0.10;;;;;;;;;;5086675;28;20199;-76
2022/04/29 03:47:18;;;;;;;0.10;0.10;;;;;;;;;;5091631;28;20245;-75
2022/04/29 03:49:44;;;;;;;0.10;0.10;;;;;;;;;;5086027;28;20557;-75
2022/04/29 03:52:11;;;;;;;0.10;0.10;;;;;;;;;;5091569;28;20641;-75
2022/04/29 03:54:38;;;;;;;0.10;0.10;;;;;;;;;;5086290;28;20200;-75
2022/04/29 03:57:05;;;;;;;0.13;0.13;;;;;;;;;;5090169;28;20253;-76
2022/04/29 03:59:31;;;;;;;0.10;0.10;;;;;;;;;;5087137;28;20241;-75
2022/04/29 04:01:57;;;;;;;0.10;0.10;;;;;;;;;;5090295;28;20263;-75
2022/04/29 04:04:24;;;;;;;0.10;0.10;;;;;;;;;;5086638;28;20214;-75
2022/04/29 04:06:50;;;;;;;0.10;0.10;;;;;;;;;;5088659;28;20249;-75
2022/04/29 04:09:16;;;;;;;0.10;0.10;;;;;;;;;;5088113;28;20467;-75
2022/04/29 04:11:44;;;;;;;0.10;0.10;;;;;;;;;;5088232;28;20627;-76
2022/04/29 04:14:10;;;;;;;0.10;0.10;;;;;;;;;;5088648;28;20215;-74
2022/04/29 04:16:37;;;;;;;0.10;0.10;;;;;;;;;;5087274;28;20527;-75
2022/04/29 04:19:04;;;;;;;0.10;0.10;;;;;;;;;;5089586;28;20208;-75
2022/04/29 04:21:33;;;;;;;2.13;2.10;;;;;;;;;;5086117;28;20272;-76
2022/04/29 04:23:59;;;;;;;0.10;0.10;;;;;;;;;;5089788;28;20241;-75
2022/04/29 04:26:25;;;;;;;0.10;0.10;;;;;;;;;;5085672;28;20293;-74
2022/04/29 04:28:53;;;;;;;0.10;0.10;;;;;;;;;;5090681;28;20203;-74
2022/04/29 04:31:21;;;;;;;0.20;0.20;;;;;;;;;;5084719;28;20230;-75
2022/04/29 04:33:47;;;;;;;0.10;0.10;;;;;;;;;;5091357;28;20281;-76
2022/04/29 04:36:13;;;;;;;0.10;0.10;;;;;;;;;;5083940;28;20367;-75
2022/04/29 04:38:40;;;;;;;0.10;0.10;;;;;;;;;;5092027;28;20257;-75
2022/04/29 04:41:08;;;;;;;0.10;0.10;;;;;;;;;;5082185;28;20246;-75
2022/04/29 04:43:35;;;;;;;0.10;0.10;;;;;;;;;;5092503;28;20499;-76
2022/04/29 04:46:03;;;;;;;0.10;0.10;;;;;;;;;;5082271;28;20427;-75
2022/04/29 04:48:29;;;;;;;0.10;0.10;;;;;;;;;;5093155;28;20268;-74
2022/04/29 04:50:59;;;;;;;0.10;0.10;;;;;;;;;;5081250;28;20243;-74
2022/04/29 04:53:25;;;;;;;0.10;0.10;;;;;;;;;;5093313;28;20196;-75
2022/04/29 04:55:52;;;;;;;0.10;0.10;;;;;;;;;;5080459;28;20627;-75
2022/04/29 04:58:19;;;;;;;0.10;0.10;;;;;;;;;;5094732;28;20227;-75
2022/04/29 05:00:45;;;;;;;0.10;0.10;;;;;;;;;;5079732;28;20552;-77
2022/04/29 05:03:13;;;;;;;0.10;0.10;;;;;;;;;;5095037;28;20206;-76
2022/04/29 05:05:39;;;;;;;0.10;0.10;;;;;;;;;;5079091;28;20261;-75
2022/04/29 05:08:06;;;;;;;0.10;0.10;;;;;;;;;;5095834;28;20279;-75
2022/04/29 05:10:32;;;;;;;0.10;0.10;;;;;;;;;;5078040;28;20411;-76
2022/04/29 05:12:58;;;;;;;0.10;0.10;;;;;;;;;;5096809;28;20214;-75
2022/04/29 05:15:24;;;;;;;0.10;0.10;;;;;;;;;;5076911;28;20252;-75
2022/04/29 05:17:51;;;;;;;0.10;0.10;;;;;;;;;;5097358;28;20209;-76
2022/04/29 05:20:18;;;;;;;0.10;0.10;;;;;;;;;;5075398;28;20211;-75
2022/04/29 05:22:45;;;;;;;0.10;0.10;;;;;;;;;;5098686;28;20261;-75
2022/04/29 05:25:12;;;;;;;0.10;0.10;;;;;;;;;;5075164;28;20527;-75
2022/04/29 05:27:38;;;;;;;0.10;0.10;;;;;;;;;;5098922;28;20207;-75
2022/04/29 05:30:05;;;;;;;0.10;0.10;;;;;;;;;;5084690;28;20412;-76
2022/04/29 05:32:32;;;;;;;0.10;0.10;;;;;;;;;;5056000;28;20207;-75
2022/04/29 05:34:59;;;;;;;0.10;0.10;;;;;;;;;;5084041;28;20207;-75
2022/04/29 05:37:27;;;;;;;0.10;0.10;;;;;;;;;;5089331;28;20497;-76
2022/04/29 05:42:39;;;;;;;0.10;0.10;;;;;;;;;;5074757;28;20407;-75
2022/04/29 05:45:06;;;;;;;0.10;0.10;;;;;;;;;;5079433;28;20359;-76
2022/04/29 05:47:32;;;;;;;0.10;0.10;;;;;;;;;;5099114;28;20223;-75
2022/04/29 05:49:58;;;;;;;0.10;0.10;;;;;;;;;;5083964;28;20241;-75
2022/04/29 05:52:26;;;;;;;0.10;0.10;;;;;;;;;;5088075;28;20322;-75
2022/04/29 05:54:53;;;;;;;0.10;0.10;;;;;;;;;;5083709;28;20317;-75
2022/04/29 05:57:20;;;;;;;0.10;0.10;;;;;;;;;;5089062;28;20289;-75
2022/04/29 05:59:46;;;;;;;0.10;0.10;;;;;;;;;;5084038;28;20245;-75
2022/04/29 06:02:12;;;;;;;0.10;0.10;;;;;;;;;;5088925;28;20237;-75
2022/04/29 06:04:39;;;;;;;0.10;0.10;;;;;;;;;;5083917;28;20496;-76
2022/04/29 06:07:05;;;;;;;0.00;0.00;;;;;;;;;;5088701;28;20245;-75
2022/04/29 06:09:31;;;;;;;0.10;0.10;;;;;;;;;;5083667;28;20229;-75
2022/04/29 06:11:59;;;;;;;0.10;0.10;;;;;;;;;;5087987;28;20322;-75
2022/04/29 06:14:26;;;;;;;0.10;0.10;;;;;;;;;;5084454;28;20214;-76
2022/04/29 06:16:52;;;;;;;0.10;0.10;;;;;;;;;;5086856;28;20242;-76
2022/04/29 06:19:18;;;;;;;0.10;0.10;;;;;;;;;;5085021;28;20203;-75
2022/04/29 06:21:44;;;;;;;0.10;0.10;;;;;;;;;;5085943;28;20248;-76
2022/04/29 06:24:11;;;;;;;0.10;0.10;;;;;;;;;;5086118;28;20273;-75
2022/04/29 06:26:37;;;;;;;0.10;0.10;;;;;;;;;;5084996;28;20443;-76
2022/04/29 06:29:05;;;;;;;0.10;0.10;;;;;;;;;;5087083;28;20245;-76
2022/04/29 06:31:31;;;;;;;0.10;0.10;;;;;;;;;;5084213;28;20489;-76
2022/04/29 06:33:57;;;;;;;0.10;0.10;;;;;;;;;;5087456;28;20209;-75
2022/04/29 06:36:24;;;;;;;0.10;0.10;;;;;;;;;;5082885;28;20249;-75
2022/04/29 06:38:50;;;;;;;0.10;0.10;;;;;;;;;;5088248;28;20207;-76
2022/04/29 06:41:16;;;;;;;0.10;0.10;;;;;;;;;;5081991;28;20241;-75
2022/04/29 06:43:43;;;;;;;0.10;0.10;;;;;;;;;;5089026;28;20211;-75
2022/04/29 06:46:13;;;;;;;0.10;0.10;;;;;;;;;;5080941;28;20283;-76
2022/04/29 06:48:39;;;;;;;0.00;0.00;;;;;;;;;;5089888;28;20374;-75
2022/04/29 06:51:06;;;;;;;0.10;0.10;;;;;;;;;;5080318;28;20260;-75
2022/04/29 06:53:32;;;;;;;0.10;0.10;;;;;;;;;;5090845;28;20243;-76
2022/04/29 06:55:58;;;;;;;0.10;0.10;;;;;;;;;;5079597;28;20468;-77
2022/04/29 06:58:25;;;;;;;0.10;0.10;;;;;;;;;;5091654;28;20210;-76
2022/04/29 07:00:52;;;;;;;0.10;0.10;;;;;;;;;;5078590;28;20237;-76
2022/04/29 07:03:19;;;;;;;0.10;0.10;;;;;;;;;;5092270;28;20211;-75
2022/04/29 07:05:46;;;;;;;0.10;0.10;;;;;;;;;;5077879;28;20248;-76
2022/04/29 07:08:13;;;;;;;0.10;0.10;;;;;;;;;;5092951;28;20214;-76
2022/04/29 07:10:40;;;;;;;0.10;0.10;;;;;;;;;;5076866;28;20548;-75
2022/04/29 07:13:06;;;;;;;0.10;0.10;;;;;;;;;;5093561;28;20203;-77
2022/04/29 07:15:33;;;;;;;0.10;0.10;;;;;;;;;;5075886;28;20244;-76
2022/04/29 07:17:59;;;;;;;0.10;0.10;;;;;;;;;;5094619;28;20212;-77
2022/04/29 07:20:28;;;;;;;0.10;0.10;;;;;;;;;;5073920;28;20248;-76
2022/04/29 07:22:55;;;;;;;0.10;0.10;;;;;;;;;;5095227;28;20309;-77
2022/04/29 07:25:23;;;;;;;0.03;0.03;;;;;;;;;;5074582;28;20206;-77
2022/04/29 07:27:50;;;;;;;0.10;0.10;;;;;;;;;;5095912;28;20263;-76
2022/04/29 07:30:16;;;;;;;0.10;0.10;;;;;;;;;;5073749;28;20209;-76
2022/04/29 07:32:42;;;;;;;0.10;0.10;;;;;;;;;;5096644;28;20193;-76
2022/04/29 07:43:23;;;;;;;0.10;0.10;;;;;;;;;;5091497;28;20300;-76
2022/04/29 07:45:51;;;;;;;0.10;0.10;;;;;;;;;;5077971;28;20243;-75
2022/04/29 07:48:17;;;;;;;0.10;0.10;;;;;;;;;;5091958;28;20209;-75
2022/04/29 07:50:44;;;;;;;0.10;0.10;;;;;;;;;;5077006;28;20300;-75
2022/04/29 07:53:13;;;;;;;0.10;0.10;;;;;;;;;;5092476;28;20223;-76
2022/04/29 07:55:39;;;;;;;0.10;0.10;;;;;;;;;;5076307;28;20242;-77
2022/04/29 07:58:06;;;;;;;0.10;0.10;;;;;;;;;;5093575;28;20200;-75
2022/04/29 08:00:33;;;;;;;0.10;0.10;;;;;;;;;;5075286;28;20239;-74
2022/04/29 08:03:01;;;;;;;0.10;0.10;;;;;;;;;;5093704;28;20558;-77
2022/04/29 08:05:27;;;;;;;0.10;0.10;;;;;;;;;;5074247;28;20256;-76
2022/04/29 08:07:55;;;;;;;0.10;0.10;;;;;;;;;;5095016;28;20243;-75
2022/04/29 08:10:23;;;;;;;0.10;0.10;;;;;;;;;;5073818;28;20204;-77
2022/04/29 08:12:50;;;;;;;0.10;0.10;;;;;;;;;;5095216;28;20213;-77
2022/04/29 08:15:18;;;;;;;0.10;0.10;;;;;;;;;;5074051;28;20255;-76
2022/04/29 08:17:45;;;;;;;0.10;0.10;;;;;;;;;;5099660;28;20200;-76
2022/04/29 08:20:11;;;;;;;0.10;0.10;;;;;;;;;;5075484;28;20268;-76
2022/04/29 08:22:40;;;;;;;0.10;0.10;;;;;;;;;;5100275;28;20220;-76
2022/04/29 08:25:07;;;;;;;0.10;0.10;;;;;;;;;;5076659;28;20247;-75
2022/04/29 08:27:34;;;;;;;0.10;0.10;;;;;;;;;;5100819;28;20511;-75
2022/04/29 08:30:01;;;;;;;0.03;0.03;;;;;;;;;;5085574;28;20213;-77
2022/04/29 08:32:27;;;;;;;0.10;0.10;;;;;;;;;;5090710;28;20242;-76
2022/04/29 08:34:54;;;;;;;0.10;0.10;;;;;;;;;;5085289;28;20206;-74
2022/04/29 08:37:20;;;;;;;0.10;0.10;;;;;;;;;;5090506;28;20243;-75
2022/04/29 08:39:47;;;;;;;0.10;0.10;;;;;;;;;;5085059;28;20296;-75
2022/04/29 08:42:16;;;;;;;0.10;0.10;;;;;;;;;;5090328;28;20240;-76
2022/04/29 08:44:47;;;;;;;0.10;0.10;;;;;;;;;;5085521;28;20197;-76
2022/04/29 08:47:17;;;;;;;0.10;0.10;;;;;;;;;;5090884;28;20600;-75
2022/04/29 08:49:50;;;;;;;0.10;0.10;;;;;;;;;;5085354;28;20203;-76
2022/04/29 08:52:19;;;;;;;0.03;0.03;;;;;;;;;;5090587;28;20392;-76
2022/04/29 09:00:27;;;;;;;0.10;0.10;;;;;;;;;;5075571;28;20216;-75
2022/04/29 09:03:00;;;;;;;0.10;0.10;;;;;;;;;;5097940;28;20275;-76
2022/04/29 09:05:28;;;;;;;0.00;0.00;;;;;;;;;;5076297;28;20460;-77
2022/04/29 09:08:04;;;;;;;0.10;0.10;;;;;;;;;;5097764;28;20225;-76
2022/04/29 09:10:42;;;;;;;0.10;0.10;;;;;;;;;;5076901;28;20547;-76
2022/04/29 09:13:19;;;;;;;0.10;0.10;;;;;;;;;;5095996;28;20207;-78
2022/04/29 09:15:48;;;;;;;0.03;0.03;;;;;;;;;;5074318;28;20261;-76
2022/04/29 09:18:28;;;;;;;0.00;0.00;;;;;;;;;;5084779;28;20208;-75
2022/04/29 09:21:04;;;;;;;0.10;0.10;;;;;;;;;;5079250;28;20260;-75
2022/04/29 09:23:45;;;;;;;0.03;0.03;;;;;;;;;;5092914;28;20537;-75
2022/04/29 09:26:19;;;;;;;0.10;0.10;;;;;;;;;;5082508;28;20264;-74
2022/04/29 09:28:46;;;;;;;0.10;0.10;;;;;;;;;;5090238;28;20196;-74
2022/04/29 09:31:15;;;;;;;0.10;0.10;;;;;;;;;;5082774;28;20234;-75
2022/04/29 09:33:41;;;;;;;0.10;0.10;;;;;;;;;;5090790;28;20513;-75
2022/04/29 09:36:08;;;;;;;0.10;0.10;;;;;;;;;;5082116;28;20300;-75
2022/04/29 09:41:22;;;;;;;0.00;0.00;;;;;;;;;;5083665;28;20264;-76
2022/04/29 09:43:48;;;;;;;0.00;0.00;;;;;;;;;;5089706;28;20212;-75
2022/04/29 09:46:17;;;;;;;0.10;0.10;;;;;;;;;;5082754;28;20259;-76
2022/04/29 09:48:57;;;;;;;0.00;0.00;;;;;;;;;;5090461;28;20266;-75
2022/04/29 09:51:41;;;;;;;0.05;0.05;;;;;;;;;;5083810;28;20452;-75
2022/04/29 09:54:08;;;;;;;0.00;0.00;;;;;;;;;;5087359;28;20224;-75
2022/04/29 09:56:34;;;;;;;0.03;0.03;;;;;;;;;;5085244;28;20245;-75
2022/04/29 09:59:01;;;;;;;0.03;0.03;;;;;;;;;;5087720;28;20208;-76
2022/04/29 10:01:30;;;;;;;0.00;0.00;;;;;;;;;;5084167;28;20298;-76
2022/04/29 10:03:56;;;;;;;0.10;0.10;;;;;;;;;;5088623;28;20208;-75
2022/04/29 10:06:23;;;;;;;0.00;0.00;;;;;;;;;;5083424;28;20248;-76
2022/04/29 10:08:50;;;;;;;0.00;0.00;;;;;;;;;;5089008;28;20267;-75
2022/04/29 10:11:17;;;;;;;0.00;0.00;;;;;;;;;;5082591;28;20248;-76
2022/04/29 10:13:44;;;;;;;0.00;0.00;;;;;;;;;;5089650;28;20389;-76
2022/04/29 10:16:12;;;;;;;0.00;0.00;;;;;;;;;;5081342;28;20293;-75
2022/04/29 10:21:26;;;;;;;0.00;0.00;;;;;;;;;;5083833;28;20308;-75
2022/04/29 10:23:53;;;;;;;0.00;0.00;;;;;;;;;;5088369;28;20422;-75
2022/04/29 10:26:20;;;;;;;0.00;0.00;;;;;;;;;;5082737;28;20256;-75
2022/04/29 10:28:46;;;;;;;0.00;0.00;;;;;;;;;;5089094;28;20226;-75
2022/04/29 10:31:17;;;;;;;0.03;0.03;;;;;;;;;;5081600;28;20274;-76
2022/04/29 10:33:51;;;;;;;0.00;0.00;;;;;;;;;;5089245;28;20199;-75
2022/04/29 10:36:22;;;;;;;0.00;0.00;;;;;;;;;;5082155;28;20324;-75
2022/04/29 10:38:49;;;;;;;0.10;0.10;;;;;;;;;;5088176;28;20204;-74
2022/04/29 10:41:16;;;;;;;0.00;0.00;;;;;;;;;;5082189;28;20239;-75
2022/04/29 10:43:47;;;;;;;0.10;0.10;;;;;;;;;;5089431;28;20222;-75
2022/04/29 10:46:23;;;;;;;0.00;0.00;;;;;;;;;;5081582;28;20250;-76
2022/04/29 10:48:52;;;;;;;0.00;0.00;;;;;;;;;;5088388;28;20210;-76
2022/04/29 10:51:20;;;;;;;0.00;0.00;;;;;;;;;;5082464;28;20238;-76
2022/04/29 10:53:48;;;;;;;0.00;0.00;;;;;;;;;;5071154;28;20487;-76
2022/04/29 10:56:33;;;;;;;0.00;0.00;;;;;;;;;;5081573;28;20250;-76
2022/04/29 10:58:59;;;;;;;0.00;0.00;;;;;;;;;;5087061;28;20203;-76
2022/04/29 11:01:27;;;;;;;0.00;0.00;;;;;;;;;;5083045;28;20249;-76
2022/04/29 11:03:55;;;;;;;0.10;0.10;;;;;;;;;;5087729;28;20238;-76
2022/04/29 11:06:21;;;;;;;0.00;0.00;;;;;;;;;;5082462;28;20305;-76
2022/04/29 11:08:49;;;;;;;0.10;0.10;;;;;;;;;;5088188;28;20215;-75
2022/04/29 11:11:16;;;;;;;0.03;0.03;;;;;;;;;;5081403;28;20243;-75
2022/04/29 11:13:43;;;;;;;0.00;0.00;;;;;;;;;;5088911;28;20526;-74
2022/04/29 11:16:13;;;;;;;0.03;0.03;;;;;;;;;;5080615;28;20420;-76
2022/04/29 11:18:40;;;;;;;0.00;0.00;;;;;;;;;;5089565;28;20203;-74
2022/04/29 11:26:44;;;;;;;0.00;0.00;;;;;;;;;;5084638;28;20249;-75
2022/04/29 11:29:10;;;;;;;0.00;0.00;;;;;;;;;;5085211;28;20347;-75
2022/04/29 11:31:37;;;;;;;0.10;0.10;;;;;;;;;;5084025;28;20452;-75
2022/04/29 11:34:07;;;;;;;0.00;0.00;;;;;;;;;;5086323;28;20210;-75
2022/04/29 11:36:35;;;;;;;0.00;0.00;;;;;;;;;;5083686;28;20467;-75
2022/04/29 11:39:03;;;;;;;0.00;0.00;;;;;;;;;;5086300;28;20209;-74
2022/04/29 11:41:30;;;;;;;0.00;0.00;;;;;;;;;;5083087;28;20252;-76
2022/04/29 11:43:57;;;;;;;0.00;0.00;;;;;;;;;;5086835;28;20268;-75
2022/04/29 11:46:23;;;;;;;0.00;0.00;;;;;;;;;;5082179;28;20265;-75
2022/04/29 11:48:50;;;;;;;0.08;0.08;;;;;;;;;;5087661;28;20202;-76
2022/04/29 11:51:16;;;;;;;0.00;0.00;;;;;;;;;;5083505;28;20454;-76
2022/04/29 11:53:54;;;;;;;0.05;0.05;;;;;;;;;;5092383;28;20200;-78
2022/04/29 11:56:20;;;;;;;0.00;0.00;;;;;;;;;;5085500;28;20241;-76
2022/04/29 11:58:46;;;;;;;0.00;0.00;;;;;;;;;;5092107;28;20228;-76
2022/04/29 12:01:14;;;;;;;0.00;0.00;;;;;;;;;;5084305;28;20483;-75
2022/04/29 12:03:46;;;;;;;0.00;0.00;;;;;;;;;;5092733;28;20284;-75
2022/04/29 12:06:12;;;;;;;1.48;1.38;;;;;;;;;;5084194;28;20247;-75
2022/04/29 12:08:39;;;;;;;0.00;0.00;;;;;;;;;;5092506;28;20217;-76
2022/04/29 12:11:08;;;;;;;0.00;0.00;;;;;;;;;;5083573;28;20444;-77
2022/04/29 12:13:36;;;;;;;0.10;0.10;;;;;;;;;;5093377;28;20214;-75
2022/04/29 12:16:02;;;;;;;0.10;0.10;;;;;;;;;;5082984;28;20249;-76
2022/04/29 12:18:42;;;;;;;0.10;0.10;;;;;;;;;;5093762;28;20204;-76
2022/04/29 12:21:09;;;;;;;0.08;0.08;;;;;;;;;;5083571;28;20257;-76
2022/04/29 12:23:35;;;;;;;0.00;0.00;;;;;;;;;;5092858;28;20228;-76
2022/04/29 12:26:02;;;;;;;0.00;0.00;;;;;;;;;;5082601;28;20270;-75
2022/04/29 12:28:31;;;;;;;0.00;0.00;;;;;;;;;;5093796;28;20395;-75
2022/04/29 12:36:27;;;;;;;0.00;0.00;;;;;;;;;;5085609;28;20266;-75
2022/04/29 12:39:04;;;;;;;0.05;0.05;;;;;;;;;;5090132;28;20213;-74
2022/04/29 12:41:30;;;;;;;0.10;0.10;;;;;;;;;;5086236;28;20245;-76
2022/04/29 12:44:08;;;;;;;0.05;0.05;;;;;;;;;;5089671;28;20537;-77
2022/04/29 12:46:34;;;;;;;0.10;0.10;;;;;;;;;;5086410;28;20245;-75
2022/04/29 12:49:01;;;;;;;0.00;0.00;;;;;;;;;;5089123;28;20212;-76
2022/04/29 12:51:31;;;;;;;0.10;0.10;;;;;;;;;;5085576;28;20252;-75
2022/04/29 12:54:00;;;;;;;0.00;0.00;;;;;;;;;;5089471;28;20205;-76
2022/04/29 12:56:27;;;;;;;0.00;0.00;;;;;;;;;;5085532;28;20483;-74
2022/04/29 12:58:54;;;;;;;0.10;0.10;;;;;;;;;;5090185;28;20206;-76
2022/04/29 13:01:22;;;;;;;0.05;0.05;;;;;;;;;;5083862;28;20248;-77
2022/04/29 13:03:49;;;;;;;0.00;0.00;;;;;;;;;;5090969;28;20233;-76
2022/04/29 13:08:57;;;;;;;0.08;0.08;;;;;;;;;;5086070;28;20530;-75
2022/04/29 13:11:23;;;;;;;0.10;0.10;;;;;;;;;;5084381;28;20253;-75
2022/04/29 13:13:51;;;;;;;0.08;0.08;;;;;;;;;;5090608;28;20216;-75
2022/04/29 13:16:17;;;;;;;0.00;0.00;;;;;;;;;;5083983;28;20387;-75
2022/04/29 13:18:45;;;;;;;0.05;0.05;;;;;;;;;;5090883;28;20268;-75
2022/04/29 13:21:11;;;;;;;0.00;0.00;;;;;;;;;;5082833;28;20238;-76
2022/04/29 13:23:38;;;;;;;0.00;0.00;;;;;;;;;;5091356;28;20290;-77
2022/04/29 13:26:05;;;;;;;0.10;0.10;;;;;;;;;;5081841;28;20474;-76
2022/04/29 13:28:32;;;;;;;0.00;0.00;;;;;;;;;;5092210;28;20216;-78
2022/04/29 13:30:58;;;;;;;0.10;0.10;;;;;;;;;;5081094;28;20245;-77
2022/04/29 13:33:25;;;;;;;0.08;0.08;;;;;;;;;;5092911;28;20244;-76
2022/04/29 13:35:52;;;;;;;0.00;0.00;;;;;;;;;;5079765;28;20273;-77
2022/04/29 13:38:19;;;;;;;0.00;0.00;;;;;;;;;;5093785;28;20213;-77
2022/04/29 13:40:45;;;;;;;0.00;0.00;;;;;;;;;;5079142;28;20255;-76
2022/04/29 13:43:12;;;;;;;0.00;0.00;;;;;;;;;;5094488;28;20230;-76
2022/04/29 13:45:39;;;;;;;0.00;0.00;;;;;;;;;;5078114;28;20318;-75
2022/04/29 13:48:06;;;;;;;0.00;0.00;;;;;;;;;;5095534;28;20506;-75
2022/04/29 13:50:32;;;;;;;0.00;0.00;;;;;;;;;;5077566;28;20312;-74
2022/04/29 13:53:09;;;;;;;0.03;0.03;;;;;;;;;;5096191;28;20206;-75
2022/04/29 13:55:35;;;;;;;0.00;0.00;;;;;;;;;;5077467;28;20308;-74
2022/04/29 13:58:01;;;;;;;0.00;0.00;;;;;;;;;;5095899;28;20229;-76
2022/04/29 14:00:31;;;;;;;0.00;0.00;;;;;;;;;;5076216;28;20311;-76
2022/04/29 14:02:57;;;;;;;0.00;0.00;;;;;;;;;;5096090;28;20266;-75
2022/04/29 14:05:24;;;;;;;0.00;0.00;;;;;;;;;;5075685;28;20272;-75
2022/04/29 14:07:51;;;;;;;0.10;0.10;;;;;;;;;;5097285;28;20533;-74
2022/04/29 14:10:19;;;;;;;0.00;0.00;;;;;;;;;;5075200;28;20228;-74
2022/04/29 14:12:45;;;;;;;0.00;0.00;;;;;;;;;;5097048;28;20495;-76
2022/04/29 14:15:12;;;;;;;0.10;0.10;;;;;;;;;;5073898;28;20215;-75
2022/04/29 14:17:38;;;;;;;0.00;0.00;;;;;;;;;;5098559;28;20503;-75
2022/04/29 14:20:06;;;;;;;0.10;0.10;;;;;;;;;;5080602;28;20213;-75
2022/04/29 14:22:32;;;;;;;0.10;0.10;;;;;;;;;;5098964;28;20278;-75
2022/04/29 14:24:58;;;;;;;0.00;0.00;;;;;;;;;;5083460;28;20226;-75
2022/04/29 14:27:26;;;;;;;0.03;0.03;;;;;;;;;;5088848;28;20243;-76
2022/04/29 14:29:52;;;;;;;0.10;0.10;;;;;;;;;;5083391;28;20196;-76
2022/04/29 14:32:19;;;;;;;0.00;0.00;;;;;;;;;;5088792;28;20438;-70
2022/04/29 14:34:45;;;;;;;0.00;0.00;;;;;;;;;;5083157;28;20200;-70
2022/04/29 14:37:13;;;;;;;0.00;0.00;;;;;;;;;;5088508;28;20239;-71
2022/04/29 14:39:39;;;;;;;0.00;0.00;;;;;;;;;;5083286;28;20322;-71
2022/04/29 14:42:06;;;;;;;0.08;0.08;;;;;;;;;;5088379;28;20243;-71
2022/04/29 14:44:34;;;;;;;0.00;0.00;;;;;;;;;;5083263;28;20526;-71
2022/04/29 14:47:01;;;;;;;0.00;0.00;;;;;;;;;;5087572;28;20312;-70
2022/04/29 14:49:28;;;;;;;0.00;0.00;;;;;;;;;;5083548;28;20285;-72
2022/04/29 14:51:54;;;;;;;0.10;0.10;;;;;;;;;;5086766;28;20405;-72
2022/04/29 14:54:21;;;;;;;0.10;0.10;;;;;;;;;;5084566;28;20204;-72
2022/04/29 14:56:47;;;;;;;0.00;0.00;;;;;;;;;;5086259;28;20273;-70
2022/04/29 14:59:13;;;;;;;0.10;0.10;;;;;;;;;;5085275;28;20203;-71
2022/04/29 15:01:41;;;;;;;0.10;0.10;;;;;;;;;;5084759;28;20249;-69
2022/04/29 15:04:08;;;;;;;0.00;0.00;;;;;;;;;;5085819;28;20232;-72
2022/04/29 15:06:35;;;;;;;0.00;0.00;;;;;;;;;;5084364;28;20247;-71
2022/04/29 15:17:16;;;;;;;0.10;0.10;;;;;;;;;;5087862;28;20454;-71
2022/04/29 15:19:43;;;;;;;0.00;0.00;;;;;;;;;;5083036;28;20226;-72
2022/04/29 15:22:09;;;;;;;0.10;0.10;;;;;;;;;;5088023;28;20248;-71
2022/04/29 15:24:36;;;;;;;0.00;0.00;;;;;;;;;;5084008;28;20256;-71
2022/04/29 15:27:02;;;;;;;0.03;0.03;;;;;;;;;;5091487;28;20307;-72
2022/04/29 15:29:28;;;;;;;0.00;0.00;;;;;;;;;;5087254;28;20525;-72
2022/04/29 15:31:54;;;;;;;0.00;0.00;;;;;;;;;;5090341;28;20242;-72